Tollhouse, CA

9:20 AM PDT on August 29, 2015 (GMT -0700)
Free Weather Data; Sandpiper Loop | | Change Station
CLOSE
Current Station
Personal Weather Station
Location: Tollhouse, CA
Elevation: 1991 ft
Nearby Weather Stations

Elev 1991 ft 36.98 °N, 119.39 °W | Updated 39 seconds ago

Clear
Clear
83.8 °F
Feels Like 82 °F
N
1.0
Wind Variable Wind from East
Gusts 4.0 mph

Today
High -- | Low -- °F
--% Chance of Precip.
Yesterday
High -- | Low -- °F
Precip. -- in
6:25 AM 7:30 PM
Full, 100% visible
Pressure 29.94 in
Visibility 10.0 miles
Clouds Scattered Clouds 15000 ft
Mostly Cloudy 20000 ft
Heat Index 82 °F
Dew Point 50 °F
Humidity 31%
Rainfall 0.00 in
Snow Depth Not available.
UV 2 out of 12
Pollen 8.70 out of 12
Air Quality Not available.
Flu Activity Not available.
METAR KFAT 291553Z 30012KT 10SM SCT150 BKN200 26/14 A2995 RMK AO2 SLP137 MTNS OBSCD FU DSNT N-E-S T02610139
Pressure 29.94 in
Visibility 10.0 miles
Clouds Scattered Clouds 15000 ft
Mostly Cloudy 20000 ft
Heat Index 82 °F
Dew Point 50 °F
Humidity 31%
Rainfall 0.00 in
Snow Depth Not available.
UV 2 out of 12
Pollen 8.70 out of 12
Air Quality Not available.
Flu Activity Not available.
METAR KFAT 291553Z 30012KT 10SM SCT150 BKN200 26/14 A2995 RMK AO2 SLP137 MTNS OBSCD FU DSNT N-E-S T02610139

10-Day Weather Forecast

×

Almanac

Astronomy

Aug. 29, 2015 Rise Set
Actual Time
Civil Twilight
Nautical Twilight
Astronomical Twilight
Moon
Length of Visible Light
Length of Day
Tomorrow will be .
, % of the Moon is Illuminated

Today's Extremes

State Highs State Lows

Community

WunderPhotos

Upload Photos

1,850,719 photos uploaded!

WunderBlogs® & News

Nearby

Air Quality

  Air Quality AQ Index Pollutant
Not available.

Snow Depth

Station Depth Elevation

Earthquake Activity

City Distance Mag. Time & Date
Minimum magnitude displayed is 2.5.

Coastal Water Temperatures

Place Temperature

Stations

Nearby Weather Stations

Station Location Temp. Windchill Dew Point Humidity Wind Precip. Elev Updated Type